sensor_id;sensor_type;location;lat;lon;timestamp;P1;durP1;ratioP1;P2;durP2;ratioP2
15331;SDS011;7766;51.534;6.722;2023-04-15T00:00:46;5.87;;;4.80;;
15331;SDS011;7766;51.534;6.722;2023-04-15T00:01:47;8.03;;;4.67;;
15331;SDS011;7766;51.534;6.722;2023-04-15T00:02:48;9.70;;;5.13;;
15331;SDS011;7766;51.534;6.722;2023-04-15T00:03:50;7.37;;;4.80;;
15331;SDS011;7766;51.534;6.722;2023-04-15T00:04:51;8.60;;;4.97;;
15331;SDS011;7766;51.534;6.722;2023-04-15T00:05:52;7.03;;;5.53;;
15331;SDS011;7766;51.534;6.722;2023-04-15T00:06:53;8.30;;;5.50;;
15331;SDS011;7766;51.534;6.722;2023-04-15T00:07:54;7.10;;;5.37;;
15331;SDS011;7766;51.534;6.722;2023-04-15T00:08:55;8.17;;;5.03;;
15331;SDS011;7766;51.534;6.722;2023-04-15T00:09:56;6.67;;;5.10;;
15331;SDS011;7766;51.534;6.722;2023-04-15T00:10:59;5.97;;;4.80;;
15331;SDS011;7766;51.534;6.722;2023-04-15T00:12:04;7.70;;;5.77;;
15331;SDS011;7766;51.534;6.722;2023-04-15T00:13:05;7.53;;;5.00;;
15331;SDS011;7766;51.534;6.722;2023-04-15T00:14:06;8.87;;;4.93;;
15331;SDS011;7766;51.534;6.722;2023-04-15T00:15:07;8.13;;;5.33;;
15331;SDS011;7766;51.534;6.722;2023-04-15T00:16:09;8.00;;;5.17;;
15331;SDS011;7766;51.534;6.722;2023-04-15T00:17:10;8.20;;;4.93;;
15331;SDS011;7766;51.534;6.722;2023-04-15T00:18:11;6.83;;;5.03;;
15331;SDS011;7766;51.534;6.722;2023-04-15T00:19:12;6.10;;;4.70;;
15331;SDS011;7766;51.534;6.722;2023-04-15T00:20:13;6.37;;;5.13;;
15331;SDS011;7766;51.534;6.722;2023-04-15T00:21:14;6.30;;;5.43;;
15331;SDS011;7766;51.534;6.722;2023-04-15T00:22:15;8.53;;;5.37;;
15331;SDS011;7766;51.534;6.722;2023-04-15T00:23:17;7.40;;;5.10;;
15331;SDS011;7766;51.534;6.722;2023-04-15T00:24:18;7.07;;;5.13;;
15331;SDS011;7766;51.534;6.722;2023-04-15T00:25:19;8.20;;;5.37;;
15331;SDS011;7766;51.534;6.722;2023-04-15T00:26:20;7.97;;;5.00;;
15331;SDS011;7766;51.534;6.722;2023-04-15T00:27:21;7.93;;;5.50;;
15331;SDS011;7766;51.534;6.722;2023-04-15T00:28:22;7.33;;;5.00;;
15331;SDS011;7766;51.534;6.722;2023-04-15T00:29:23;6.33;;;4.90;;
15331;SDS011;7766;51.534;6.722;2023-04-15T00:30:25;6.17;;;4.77;;
15331;SDS011;7766;51.534;6.722;2023-04-15T00:31:26;8.80;;;4.90;;
15331;SDS011;7766;51.534;6.722;2023-04-15T00:32:27;9.50;;;5.13;;
15331;SDS011;7766;51.534;6.722;2023-04-15T00:33:29;5.60;;;4.97;;
15331;SDS011;7766;51.534;6.722;2023-04-15T00:34:30;8.20;;;4.90;;
15331;SDS011;7766;51.534;6.722;2023-04-15T00:35:31;6.40;;;5.03;;
15331;SDS011;7766;51.534;6.722;2023-04-15T00:36:32;6.40;;;5.00;;
15331;SDS011;7766;51.534;6.722;2023-04-15T00:37:34;6.43;;;4.73;;
15331;SDS011;7766;51.534;6.722;2023-04-15T00:38:36;12.70;;;5.83;;
15331;SDS011;7766;51.534;6.722;2023-04-15T00:39:38;8.60;;;5.83;;
15331;SDS011;7766;51.534;6.722;2023-04-15T00:40:39;9.00;;;6.13;;
15331;SDS011;7766;51.534;6.722;2023-04-15T00:41:42;11.50;;;5.13;;
15331;SDS011;7766;51.534;6.722;2023-04-15T00:42:44;15.57;;;6.30;;
15331;SDS011;7766;51.534;6.722;2023-04-15T00:43:45;10.13;;;5.33;;
15331;SDS011;7766;51.534;6.722;2023-04-15T00:44:46;7.57;;;6.17;;
15331;SDS011;7766;51.534;6.722;2023-04-15T00:45:48;8.40;;;5.80;;
15331;SDS011;7766;51.534;6.722;2023-04-15T00:46:50;9.50;;;6.63;;
15331;SDS011;7766;51.534;6.722;2023-04-15T00:47:53;24.20;;;15.23;;
15331;SDS011;7766;51.534;6.722;2023-04-15T00:48:54;35.13;;;20.07;;
15331;SDS011;7766;51.534;6.722;2023-04-15T00:49:56;35.50;;;20.57;;
15331;SDS011;7766;51.534;6.722;2023-04-15T00:50:57;25.57;;;15.37;;
15331;SDS011;7766;51.534;6.722;2023-04-15T00:51:58;28.00;;;16.53;;
15331;SDS011;7766;51.534;6.722;2023-04-15T00:52:59;13.87;;;10.00;;
15331;SDS011;7766;51.534;6.722;2023-04-15T00:54:00;25.57;;;17.00;;
15331;SDS011;7766;51.534;6.722;2023-04-15T00:55:02;17.90;;;12.67;;
15331;SDS011;7766;51.534;6.722;2023-04-15T00:56:04;13.90;;;8.37;;
15331;SDS011;7766;51.534;6.722;2023-04-15T00:57:06;10.77;;;7.20;;
15331;SDS011;7766;51.534;6.722;2023-04-15T00:58:07;9.67;;;6.70;;
15331;SDS011;7766;51.534;6.722;2023-04-15T00:59:08;9.40;;;6.10;;
15331;SDS011;7766;51.534;6.722;2023-04-15T01:00:10;9.70;;;6.97;;
15331;SDS011;7766;51.534;6.722;2023-04-15T01:01:11;8.67;;;6.67;;
15331;SDS011;7766;51.534;6.722;2023-04-15T01:02:12;9.57;;;7.13;;
15331;SDS011;7766;51.534;6.722;2023-04-15T01:03:14;12.37;;;8.30;;
15331;SDS011;7766;51.534;6.722;2023-04-15T01:04:15;8.73;;;7.33;;
15331;SDS011;7766;51.534;6.722;2023-04-15T01:05:16;11.17;;;6.87;;
15331;SDS011;7766;51.534;6.722;2023-04-15T01:06:18;9.33;;;6.40;;
15331;SDS011;7766;51.534;6.722;2023-04-15T01:07:20;11.60;;;6.83;;
15331;SDS011;7766;51.534;6.722;2023-04-15T01:08:21;8.57;;;6.13;;
15331;SDS011;7766;51.534;6.722;2023-04-15T01:09:29;7.00;;;6.03;;
15331;SDS011;7766;51.534;6.722;2023-04-15T01:10:32;6.90;;;6.17;;
15331;SDS011;7766;51.534;6.722;2023-04-15T01:11:33;8.03;;;5.67;;
15331;SDS011;7766;51.534;6.722;2023-04-15T01:12:34;6.73;;;6.03;;
15331;SDS011;7766;51.534;6.722;2023-04-15T01:13:36;7.73;;;6.20;;
15331;SDS011;7766;51.534;6.722;2023-04-15T01:14:37;8.03;;;5.67;;
15331;SDS011;7766;51.534;6.722;2023-04-15T01:15:39;7.60;;;5.90;;
15331;SDS011;7766;51.534;6.722;2023-04-15T01:16:40;10.43;;;5.70;;
15331;SDS011;7766;51.534;6.722;2023-04-15T01:17:41;7.17;;;5.60;;
15331;SDS011;7766;51.534;6.722;2023-04-15T01:18:42;7.23;;;5.57;;
15331;SDS011;7766;51.534;6.722;2023-04-15T01:19:43;8.77;;;5.60;;
15331;SDS011;7766;51.534;6.722;2023-04-15T01:20:45;11.23;;;5.90;;
15331;SDS011;7766;51.534;6.722;2023-04-15T01:21:46;11.17;;;5.73;;
15331;SDS011;7766;51.534;6.722;2023-04-15T01:22:48;12.33;;;7.27;;
15331;SDS011;7766;51.534;6.722;2023-04-15T01:23:49;8.63;;;6.10;;
15331;SDS011;7766;51.534;6.722;2023-04-15T01:24:56;8.57;;;5.77;;
15331;SDS011;7766;51.534;6.722;2023-04-15T01:26:04;10.17;;;5.80;;
15331;SDS011;7766;51.534;6.722;2023-04-15T01:27:07;9.10;;;6.03;;
15331;SDS011;7766;51.534;6.722;2023-04-15T01:28:09;7.43;;;5.27;;
15331;SDS011;7766;51.534;6.722;2023-04-15T01:29:10;6.97;;;6.23;;
15331;SDS011;7766;51.534;6.722;2023-04-15T01:30:12;7.53;;;5.83;;
15331;SDS011;7766;51.534;6.722;2023-04-15T01:31:13;9.53;;;6.30;;
15331;SDS011;7766;51.534;6.722;2023-04-15T01:32:14;8.37;;;5.83;;
15331;SDS011;7766;51.534;6.722;2023-04-15T01:33:16;9.40;;;6.03;;
15331;SDS011;7766;51.534;6.722;2023-04-15T01:34:17;7.20;;;5.47;;
15331;SDS011;7766;51.534;6.722;2023-04-15T01:35:18;7.53;;;5.80;;
15331;SDS011;7766;51.534;6.722;2023-04-15T01:36:20;7.70;;;5.57;;
15331;SDS011;7766;51.534;6.722;2023-04-15T01:37:21;9.27;;;5.70;;
15331;SDS011;7766;51.534;6.722;2023-04-15T01:38:23;8.60;;;6.10;;
15331;SDS011;7766;51.534;6.722;2023-04-15T01:39:25;7.20;;;5.30;;
15331;SDS011;7766;51.534;6.722;2023-04-15T01:40:26;5.67;;;5.00;;
15331;SDS011;7766;51.534;6.722;2023-04-15T01:41:27;8.03;;;5.80;;
15331;SDS011;7766;51.534;6.722;2023-04-15T01:42:29;9.20;;;5.90;;
15331;SDS011;7766;51.534;6.722;2023-04-15T01:43:30;7.67;;;5.53;;
15331;SDS011;7766;51.534;6.722;2023-04-15T01:44:31;8.00;;;5.90;;
15331;SDS011;7766;51.534;6.722;2023-04-15T01:45:32;8.63;;;6.00;;
15331;SDS011;7766;51.534;6.722;2023-04-15T01:46:33;8.87;;;5.60;;
15331;SDS011;7766;51.534;6.722;2023-04-15T01:47:34;7.27;;;5.70;;
15331;SDS011;7766;51.534;6.722;2023-04-15T01:48:35;9.10;;;6.17;;
15331;SDS011;7766;51.534;6.722;2023-04-15T01:49:36;6.83;;;5.97;;
15331;SDS011;7766;51.534;6.722;2023-04-15T01:50:37;8.03;;;6.03;;
15331;SDS011;7766;51.534;6.722;2023-04-15T01:51:38;7.77;;;5.63;;
15331;SDS011;7766;51.534;6.722;2023-04-15T01:52:39;9.83;;;6.33;;
15331;SDS011;7766;51.534;6.722;2023-04-15T01:53:41;8.90;;;5.93;;
15331;SDS011;7766;51.534;6.722;2023-04-15T01:54:42;7.40;;;5.50;;
15331;SDS011;7766;51.534;6.722;2023-04-15T01:55:43;8.00;;;6.07;;
15331;SDS011;7766;51.534;6.722;2023-04-15T01:56:44;6.77;;;5.77;;
15331;SDS011;7766;51.534;6.722;2023-04-15T01:57:45;12.83;;;7.13;;
15331;SDS011;7766;51.534;6.722;2023-04-15T01:58:46;9.67;;;6.77;;
15331;SDS011;7766;51.534;6.722;2023-04-15T01:59:47;7.97;;;6.50;;
15331;SDS011;7766;51.534;6.722;2023-04-15T02:00:48;7.93;;;5.40;;
15331;SDS011;7766;51.534;6.722;2023-04-15T02:01:49;8.27;;;5.73;;
15331;SDS011;7766;51.534;6.722;2023-04-15T02:02:51;6.73;;;5.63;;
15331;SDS011;7766;51.534;6.722;2023-04-15T02:03:52;7.73;;;5.53;;
15331;SDS011;7766;51.534;6.722;2023-04-15T02:04:53;8.13;;;5.80;;
15331;SDS011;7766;51.534;6.722;2023-04-15T02:05:54;7.53;;;5.87;;
15331;SDS011;7766;51.534;6.722;2023-04-15T02:06:55;9.23;;;6.20;;
15331;SDS011;7766;51.534;6.722;2023-04-15T02:07:56;7.47;;;5.87;;
15331;SDS011;7766;51.534;6.722;2023-04-15T02:08:57;7.00;;;6.23;;
15331;SDS011;7766;51.534;6.722;2023-04-15T02:09:58;8.33;;;6.17;;
15331;SDS011;7766;51.534;6.722;2023-04-15T02:11:00;8.27;;;6.40;;
15331;SDS011;7766;51.534;6.722;2023-04-15T02:12:01;10.60;;;6.57;;
15331;SDS011;7766;51.534;6.722;2023-04-15T02:13:02;7.77;;;6.20;;
15331;SDS011;7766;51.534;6.722;2023-04-15T02:14:03;7.13;;;6.13;;
15331;SDS011;7766;51.534;6.722;2023-04-15T02:15:05;7.60;;;6.10;;
15331;SDS011;7766;51.534;6.722;2023-04-15T02:16:16;8.77;;;6.57;;
15331;SDS011;7766;51.534;6.722;2023-04-15T02:17:18;7.73;;;5.87;;
15331;SDS011;7766;51.534;6.722;2023-04-15T02:18:19;6.50;;;5.90;;
15331;SDS011;7766;51.534;6.722;2023-04-15T02:19:20;7.30;;;5.77;;
15331;SDS011;7766;51.534;6.722;2023-04-15T02:20:21;8.47;;;5.93;;
15331;SDS011;7766;51.534;6.722;2023-04-15T02:21:22;8.83;;;6.23;;
15331;SDS011;7766;51.534;6.722;2023-04-15T02:22:25;8.77;;;6.70;;
15331;SDS011;7766;51.534;6.722;2023-04-15T02:23:26;9.27;;;6.27;;
15331;SDS011;7766;51.534;6.722;2023-04-15T02:24:28;9.93;;;6.37;;
15331;SDS011;7766;51.534;6.722;2023-04-15T02:25:30;7.00;;;6.07;;
15331;SDS011;7766;51.534;6.722;2023-04-15T02:26:31;6.03;;;5.30;;
15331;SDS011;7766;51.534;6.722;2023-04-15T02:27:32;7.50;;;5.87;;
15331;SDS011;7766;51.534;6.722;2023-04-15T02:28:34;7.87;;;6.10;;
15331;SDS011;7766;51.534;6.722;2023-04-15T02:29:35;8.53;;;5.80;;
15331;SDS011;7766;51.534;6.722;2023-04-15T02:30:36;8.37;;;6.60;;
15331;SDS011;7766;51.534;6.722;2023-04-15T02:31:37;6.80;;;5.70;;
15331;SDS011;7766;51.534;6.722;2023-04-15T02:32:40;8.77;;;5.80;;
15331;SDS011;7766;51.534;6.722;2023-04-15T02:33:43;7.63;;;6.30;;
15331;SDS011;7766;51.534;6.722;2023-04-15T02:34:44;9.53;;;6.00;;
15331;SDS011;7766;51.534;6.722;2023-04-15T02:35:45;9.20;;;6.37;;
15331;SDS011;7766;51.534;6.722;2023-04-15T02:36:46;7.83;;;6.20;;
15331;SDS011;7766;51.534;6.722;2023-04-15T02:37:48;9.13;;;5.80;;
15331;SDS011;7766;51.534;6.722;2023-04-15T02:38:49;10.50;;;6.27;;
15331;SDS011;7766;51.534;6.722;2023-04-15T02:39:50;10.70;;;7.00;;
15331;SDS011;7766;51.534;6.722;2023-04-15T02:40:51;9.10;;;5.97;;
15331;SDS011;7766;51.534;6.722;2023-04-15T02:41:52;8.23;;;6.17;;
15331;SDS011;7766;51.534;6.722;2023-04-15T02:42:54;8.17;;;6.00;;
15331;SDS011;7766;51.534;6.722;2023-04-15T02:43:55;8.30;;;6.00;;
15331;SDS011;7766;51.534;6.722;2023-04-15T02:44:56;8.17;;;5.90;;
15331;SDS011;7766;51.534;6.722;2023-04-15T02:45:57;9.73;;;5.80;;
15331;SDS011;7766;51.534;6.722;2023-04-15T02:46:58;7.47;;;5.80;;
15331;SDS011;7766;51.534;6.722;2023-04-15T02:47:59;8.27;;;6.07;;
15331;SDS011;7766;51.534;6.722;2023-04-15T02:49:04;6.70;;;5.60;;
15331;SDS011;7766;51.534;6.722;2023-04-15T02:50:09;7.37;;;5.80;;
15331;SDS011;7766;51.534;6.722;2023-04-15T02:51:16;9.13;;;6.33;;
15331;SDS011;7766;51.534;6.722;2023-04-15T02:52:19;8.63;;;6.57;;
15331;SDS011;7766;51.534;6.722;2023-04-15T02:53:20;6.37;;;5.77;;
15331;SDS011;7766;51.534;6.722;2023-04-15T02:54:21;7.77;;;6.23;;
15331;SDS011;7766;51.534;6.722;2023-04-15T02:55:22;7.30;;;5.67;;
15331;SDS011;7766;51.534;6.722;2023-04-15T02:56:23;8.70;;;6.60;;
15331;SDS011;7766;51.534;6.722;2023-04-15T02:57:25;7.47;;;5.97;;
15331;SDS011;7766;51.534;6.722;2023-04-15T02:58:28;10.03;;;5.93;;
15331;SDS011;7766;51.534;6.722;2023-04-15T02:59:29;7.33;;;6.17;;
15331;SDS011;7766;51.534;6.722;2023-04-15T03:00:30;6.93;;;5.40;;
15331;SDS011;7766;51.534;6.722;2023-04-15T03:01:31;8.20;;;6.27;;
15331;SDS011;7766;51.534;6.722;2023-04-15T03:02:32;12.60;;;6.40;;
15331;SDS011;7766;51.534;6.722;2023-04-15T03:03:34;8.40;;;6.37;;
15331;SDS011;7766;51.534;6.722;2023-04-15T03:04:35;7.30;;;6.00;;
15331;SDS011;7766;51.534;6.722;2023-04-15T03:05:36;7.73;;;5.87;;
15331;SDS011;7766;51.534;6.722;2023-04-15T03:06:38;7.13;;;5.83;;
15331;SDS011;7766;51.534;6.722;2023-04-15T03:07:39;7.20;;;5.90;;
15331;SDS011;7766;51.534;6.722;2023-04-15T03:08:40;8.07;;;5.73;;
15331;SDS011;7766;51.534;6.722;2023-04-15T03:09:41;8.10;;;6.07;;
15331;SDS011;7766;51.534;6.722;2023-04-15T03:10:42;8.30;;;6.43;;
15331;SDS011;7766;51.534;6.722;2023-04-15T03:11:43;8.13;;;6.13;;
15331;SDS011;7766;51.534;6.722;2023-04-15T03:12:44;8.03;;;6.03;;
15331;SDS011;7766;51.534;6.722;2023-04-15T03:13:45;8.63;;;5.67;;
15331;SDS011;7766;51.534;6.722;2023-04-15T03:14:46;7.23;;;5.87;;
15331;SDS011;7766;51.534;6.722;2023-04-15T03:15:47;9.17;;;6.40;;
15331;SDS011;7766;51.534;6.722;2023-04-15T03:16:48;7.43;;;6.50;;
15331;SDS011;7766;51.534;6.722;2023-04-15T03:17:50;10.03;;;6.43;;
15331;SDS011;7766;51.534;6.722;2023-04-15T03:18:51;6.80;;;5.67;;
15331;SDS011;7766;51.534;6.722;2023-04-15T03:19:52;8.33;;;6.27;;
15331;SDS011;7766;51.534;6.722;2023-04-15T03:20:53;8.90;;;6.57;;
15331;SDS011;7766;51.534;6.722;2023-04-15T03:21:55;8.90;;;6.00;;
15331;SDS011;7766;51.534;6.722;2023-04-15T03:22:56;8.60;;;6.07;;
15331;SDS011;7766;51.534;6.722;2023-04-15T03:23:57;8.63;;;6.03;;
15331;SDS011;7766;51.534;6.722;2023-04-15T03:24:58;7.30;;;6.43;;
15331;SDS011;7766;51.534;6.722;2023-04-15T03:26:02;8.83;;;6.47;;
15331;SDS011;7766;51.534;6.722;2023-04-15T03:27:04;7.63;;;6.23;;
15331;SDS011;7766;51.534;6.722;2023-04-15T03:28:06;9.80;;;6.63;;
15331;SDS011;7766;51.534;6.722;2023-04-15T03:29:07;11.63;;;6.87;;
15331;SDS011;7766;51.534;6.722;2023-04-15T03:30:09;8.97;;;6.70;;
15331;SDS011;7766;51.534;6.722;2023-04-15T03:31:10;9.33;;;6.50;;
15331;SDS011;7766;51.534;6.722;2023-04-15T03:32:11;7.70;;;6.13;;
15331;SDS011;7766;51.534;6.722;2023-04-15T03:33:14;9.37;;;6.40;;
15331;SDS011;7766;51.534;6.722;2023-04-15T03:34:15;8.43;;;6.27;;
15331;SDS011;7766;51.534;6.722;2023-04-15T03:35:16;9.37;;;6.60;;
15331;SDS011;7766;51.534;6.722;2023-04-15T03:36:17;10.50;;;6.60;;
15331;SDS011;7766;51.534;6.722;2023-04-15T03:37:18;9.10;;;6.70;;
15331;SDS011;7766;51.534;6.722;2023-04-15T03:38:19;9.87;;;6.80;;
15331;SDS011;7766;51.534;6.722;2023-04-15T03:39:20;7.80;;;6.43;;
15331;SDS011;7766;51.534;6.722;2023-04-15T03:40:21;8.43;;;6.80;;
15331;SDS011;7766;51.534;6.722;2023-04-15T03:41:22;10.17;;;6.63;;
15331;SDS011;7766;51.534;6.722;2023-04-15T03:42:23;9.73;;;6.30;;
15331;SDS011;7766;51.534;6.722;2023-04-15T03:43:24;8.93;;;6.70;;
15331;SDS011;7766;51.534;6.722;2023-04-15T03:44:26;9.27;;;6.30;;
15331;SDS011;7766;51.534;6.722;2023-04-15T03:45:27;8.77;;;6.73;;
15331;SDS011;7766;51.534;6.722;2023-04-15T03:46:28;8.97;;;6.53;;
15331;SDS011;7766;51.534;6.722;2023-04-15T03:47:29;11.50;;;6.73;;
15331;SDS011;7766;51.534;6.722;2023-04-15T03:48:30;8.93;;;7.17;;
15331;SDS011;7766;51.534;6.722;2023-04-15T03:49:31;7.83;;;6.23;;
15331;SDS011;7766;51.534;6.722;2023-04-15T03:50:32;11.73;;;7.07;;
15331;SDS011;7766;51.534;6.722;2023-04-15T03:51:33;9.07;;;6.93;;
15331;SDS011;7766;51.534;6.722;2023-04-15T03:52:34;10.07;;;6.47;;
15331;SDS011;7766;51.534;6.722;2023-04-15T03:53:35;8.63;;;6.50;;
15331;SDS011;7766;51.534;6.722;2023-04-15T03:54:36;9.47;;;6.73;;
15331;SDS011;7766;51.534;6.722;2023-04-15T03:55:37;8.00;;;6.60;;
15331;SDS011;7766;51.534;6.722;2023-04-15T03:56:38;9.27;;;7.10;;
15331;SDS011;7766;51.534;6.722;2023-04-15T03:57:39;9.10;;;6.83;;
15331;SDS011;7766;51.534;6.722;2023-04-15T03:58:40;9.03;;;6.63;;
15331;SDS011;7766;51.534;6.722;2023-04-15T03:59:41;9.60;;;6.70;;
15331;SDS011;7766;51.534;6.722;2023-04-15T04:00:43;13.27;;;6.53;;
15331;SDS011;7766;51.534;6.722;2023-04-15T04:01:44;9.40;;;7.40;;
15331;SDS011;7766;51.534;6.722;2023-04-15T04:02:45;8.67;;;6.50;;
15331;SDS011;7766;51.534;6.722;2023-04-15T04:03:46;11.13;;;6.97;;
15331;SDS011;7766;51.534;6.722;2023-04-15T04:04:47;8.17;;;7.03;;
15331;SDS011;7766;51.534;6.722;2023-04-15T04:05:48;8.45;;;6.13;;
15331;SDS011;7766;51.534;6.722;2023-04-15T04:06:50;8.60;;;6.57;;
15331;SDS011;7766;51.534;6.722;2023-04-15T04:07:51;10.23;;;6.43;;
15331;SDS011;7766;51.534;6.722;2023-04-15T04:08:52;9.80;;;7.43;;
15331;SDS011;7766;51.534;6.722;2023-04-15T04:09:53;9.80;;;7.03;;
15331;SDS011;7766;51.534;6.722;2023-04-15T04:10:54;7.30;;;6.47;;
15331;SDS011;7766;51.534;6.722;2023-04-15T04:11:55;9.43;;;6.93;;
15331;SDS011;7766;51.534;6.722;2023-04-15T04:12:56;9.80;;;7.57;;
15331;SDS011;7766;51.534;6.722;2023-04-15T04:13:57;8.70;;;7.17;;
15331;SDS011;7766;51.534;6.722;2023-04-15T04:14:58;8.73;;;7.00;;
15331;SDS011;7766;51.534;6.722;2023-04-15T04:15:59;8.77;;;6.80;;
15331;SDS011;7766;51.534;6.722;2023-04-15T04:17:00;8.97;;;7.10;;
15331;SDS011;7766;51.534;6.722;2023-04-15T04:18:01;7.90;;;6.57;;
15331;SDS011;7766;51.534;6.722;2023-04-15T04:19:02;10.60;;;7.27;;
15331;SDS011;7766;51.534;6.722;2023-04-15T04:20:03;8.47;;;6.87;;
15331;SDS011;7766;51.534;6.722;2023-04-15T04:21:04;8.57;;;7.03;;
15331;SDS011;7766;51.534;6.722;2023-04-15T04:22:05;8.43;;;7.10;;
15331;SDS011;7766;51.534;6.722;2023-04-15T04:23:06;8.70;;;7.30;;
15331;SDS011;7766;51.534;6.722;2023-04-15T04:24:07;8.80;;;7.67;;
15331;SDS011;7766;51.534;6.722;2023-04-15T04:25:08;8.53;;;6.63;;
15331;SDS011;7766;51.534;6.722;2023-04-15T04:26:10;11.32;;;7.45;;
15331;SDS011;7766;51.534;6.722;2023-04-15T04:27:11;8.90;;;7.33;;
15331;SDS011;7766;51.534;6.722;2023-04-15T04:28:12;10.47;;;7.53;;
15331;SDS011;7766;51.534;6.722;2023-04-15T04:29:13;8.50;;;7.15;;
15331;SDS011;7766;51.534;6.722;2023-04-15T04:30:14;9.57;;;7.17;;
15331;SDS011;7766;51.534;6.722;2023-04-15T04:31:15;11.52;;;7.88;;
15331;SDS011;7766;51.534;6.722;2023-04-15T04:32:16;10.85;;;7.93;;
15331;SDS011;7766;51.534;6.722;2023-04-15T04:33:17;11.83;;;7.40;;
15331;SDS011;7766;51.534;6.722;2023-04-15T04:34:18;9.38;;;7.28;;
15331;SDS011;7766;51.534;6.722;2023-04-15T04:35:19;9.23;;;7.97;;
15331;SDS011;7766;51.534;6.722;2023-04-15T04:36:20;11.60;;;6.97;;
15331;SDS011;7766;51.534;6.722;2023-04-15T04:37:21;9.00;;;6.90;;
15331;SDS011;7766;51.534;6.722;2023-04-15T04:38:23;11.23;;;7.90;;
15331;SDS011;7766;51.534;6.722;2023-04-15T04:39:24;10.27;;;7.43;;
15331;SDS011;7766;51.534;6.722;2023-04-15T04:40:25;10.98;;;7.63;;
15331;SDS011;7766;51.534;6.722;2023-04-15T04:41:26;9.00;;;7.10;;
15331;SDS011;7766;51.534;6.722;2023-04-15T04:42:27;10.05;;;7.57;;
15331;SDS011;7766;51.534;6.722;2023-04-15T04:43:29;9.90;;;7.03;;
15331;SDS011;7766;51.534;6.722;2023-04-15T04:44:30;9.40;;;7.40;;
15331;SDS011;7766;51.534;6.722;2023-04-15T04:45:31;11.15;;;7.90;;
15331;SDS011;7766;51.534;6.722;2023-04-15T04:46:32;10.02;;;7.40;;
15331;SDS011;7766;51.534;6.722;2023-04-15T04:47:33;9.90;;;7.23;;
15331;SDS011;7766;51.534;6.722;2023-04-15T04:48:34;10.97;;;8.10;;
15331;SDS011;7766;51.534;6.722;2023-04-15T04:49:35;12.63;;;8.40;;
15331;SDS011;7766;51.534;6.722;2023-04-15T04:50:36;10.47;;;7.50;;
15331;SDS011;7766;51.534;6.722;2023-04-15T04:51:37;9.40;;;7.47;;
15331;SDS011;7766;51.534;6.722;2023-04-15T04:52:38;8.18;;;7.25;;
15331;SDS011;7766;51.534;6.722;2023-04-15T04:53:40;8.63;;;7.70;;
15331;SDS011;7766;51.534;6.722;2023-04-15T04:54:42;8.98;;;7.45;;
15331;SDS011;7766;51.534;6.722;2023-04-15T04:55:43;10.63;;;7.53;;
15331;SDS011;7766;51.534;6.722;2023-04-15T04:56:44;10.02;;;7.07;;
15331;SDS011;7766;51.534;6.722;2023-04-15T04:57:46;9.43;;;7.57;;
15331;SDS011;7766;51.534;6.722;2023-04-15T04:58:46;9.87;;;7.63;;
15331;SDS011;7766;51.534;6.722;2023-04-15T04:59:47;8.53;;;7.17;;
15331;SDS011;7766;51.534;6.722;2023-04-15T05:00:48;9.07;;;7.63;;
15331;SDS011;7766;51.534;6.722;2023-04-15T05:01:50;13.25;;;7.63;;
15331;SDS011;7766;51.534;6.722;2023-04-15T05:02:51;9.67;;;7.27;;
15331;SDS011;7766;51.534;6.722;2023-04-15T05:03:52;10.55;;;8.07;;
15331;SDS011;7766;51.534;6.722;2023-04-15T05:04:53;10.88;;;7.50;;
15331;SDS011;7766;51.534;6.722;2023-04-15T05:05:54;9.32;;;7.47;;
15331;SDS011;7766;51.534;6.722;2023-04-15T05:06:55;10.90;;;7.67;;
15331;SDS011;7766;51.534;6.722;2023-04-15T05:07:57;8.27;;;6.93;;
15331;SDS011;7766;51.534;6.722;2023-04-15T05:08:58;9.83;;;8.03;;
15331;SDS011;7766;51.534;6.722;2023-04-15T05:10:00;10.35;;;6.95;;
15331;SDS011;7766;51.534;6.722;2023-04-15T05:11:01;9.87;;;7.57;;
15331;SDS011;7766;51.534;6.722;2023-04-15T05:12:03;12.18;;;8.23;;
15331;SDS011;7766;51.534;6.722;2023-04-15T05:13:04;10.57;;;8.13;;
15331;SDS011;7766;51.534;6.722;2023-04-15T05:14:05;10.47;;;8.03;;
15331;SDS011;7766;51.534;6.722;2023-04-15T05:15:06;9.80;;;7.38;;
15331;SDS011;7766;51.534;6.722;2023-04-15T05:16:08;9.13;;;7.78;;
15331;SDS011;7766;51.534;6.722;2023-04-15T05:17:09;11.20;;;7.57;;
15331;SDS011;7766;51.534;6.722;2023-04-15T05:18:10;10.10;;;7.80;;
15331;SDS011;7766;51.534;6.722;2023-04-15T05:19:11;10.60;;;8.07;;
15331;SDS011;7766;51.534;6.722;2023-04-15T05:20:12;9.97;;;7.90;;
15331;SDS011;7766;51.534;6.722;2023-04-15T05:21:13;9.20;;;7.83;;
15331;SDS011;7766;51.534;6.722;2023-04-15T05:22:14;10.85;;;8.52;;
15331;SDS011;7766;51.534;6.722;2023-04-15T05:23:15;9.83;;;7.87;;
15331;SDS011;7766;51.534;6.722;2023-04-15T05:24:16;13.38;;;8.63;;
15331;SDS011;7766;51.534;6.722;2023-04-15T05:25:17;10.57;;;8.07;;
15331;SDS011;7766;51.534;6.722;2023-04-15T05:26:18;10.40;;;8.23;;
15331;SDS011;7766;51.534;6.722;2023-04-15T05:27:21;9.95;;;7.93;;
15331;SDS011;7766;51.534;6.722;2023-04-15T05:28:22;10.68;;;8.10;;
15331;SDS011;7766;51.534;6.722;2023-04-15T05:29:23;10.97;;;8.27;;
15331;SDS011;7766;51.534;6.722;2023-04-15T05:30:24;10.97;;;8.13;;
15331;SDS011;7766;51.534;6.722;2023-04-15T05:31:25;9.77;;;7.60;;
15331;SDS011;7766;51.534;6.722;2023-04-15T05:32:26;10.27;;;8.00;;
15331;SDS011;7766;51.534;6.722;2023-04-15T05:33:27;10.03;;;8.30;;
15331;SDS011;7766;51.534;6.722;2023-04-15T05:34:28;9.05;;;7.38;;
15331;SDS011;7766;51.534;6.722;2023-04-15T05:35:30;11.63;;;7.93;;
15331;SDS011;7766;51.534;6.722;2023-04-15T05:36:31;11.67;;;8.47;;
15331;SDS011;7766;51.534;6.722;2023-04-15T05:37:32;11.83;;;8.33;;
15331;SDS011;7766;51.534;6.722;2023-04-15T05:38:33;11.20;;;8.77;;
15331;SDS011;7766;51.534;6.722;2023-04-15T05:39:34;10.43;;;9.00;;
15331;SDS011;7766;51.534;6.722;2023-04-15T05:40:35;11.30;;;8.33;;
15331;SDS011;7766;51.534;6.722;2023-04-15T05:41:36;10.90;;;8.77;;
15331;SDS011;7766;51.534;6.722;2023-04-15T05:42:37;11.50;;;8.30;;
15331;SDS011;7766;51.534;6.722;2023-04-15T05:43:38;12.70;;;8.80;;
15331;SDS011;7766;51.534;6.722;2023-04-15T05:44:39;11.97;;;8.60;;
15331;SDS011;7766;51.534;6.722;2023-04-15T05:45:40;11.57;;;8.87;;
15331;SDS011;7766;51.534;6.722;2023-04-15T05:46:41;10.80;;;8.70;;
15331;SDS011;7766;51.534;6.722;2023-04-15T05:47:42;10.00;;;8.53;;
15331;SDS011;7766;51.534;6.722;2023-04-15T05:48:43;11.70;;;9.07;;
15331;SDS011;7766;51.534;6.722;2023-04-15T05:49:44;12.43;;;9.23;;
15331;SDS011;7766;51.534;6.722;2023-04-15T05:50:45;16.87;;;10.40;;
15331;SDS011;7766;51.534;6.722;2023-04-15T05:51:47;12.27;;;8.97;;
15331;SDS011;7766;51.534;6.722;2023-04-15T05:52:48;11.53;;;9.80;;
15331;SDS011;7766;51.534;6.722;2023-04-15T05:53:49;11.03;;;9.33;;
15331;SDS011;7766;51.534;6.722;2023-04-15T05:54:50;11.47;;;9.20;;
15331;SDS011;7766;51.534;6.722;2023-04-15T05:55:51;11.87;;;9.73;;
15331;SDS011;7766;51.534;6.722;2023-04-15T05:56:52;11.07;;;9.23;;
15331;SDS011;7766;51.534;6.722;2023-04-15T05:57:53;13.10;;;9.77;;
15331;SDS011;7766;51.534;6.722;2023-04-15T05:58:54;14.77;;;9.60;;
15331;SDS011;7766;51.534;6.722;2023-04-15T05:59:55;10.73;;;9.17;;
15331;SDS011;7766;51.534;6.722;2023-04-15T06:00:56;13.60;;;10.47;;
15331;SDS011;7766;51.534;6.722;2023-04-15T06:01:57;12.97;;;10.17;;
15331;SDS011;7766;51.534;6.722;2023-04-15T06:02:58;12.77;;;10.07;;
15331;SDS011;7766;51.534;6.722;2023-04-15T06:03:59;13.90;;;10.20;;
15331;SDS011;7766;51.534;6.722;2023-04-15T06:05:00;13.90;;;10.20;;
15331;SDS011;7766;51.534;6.722;2023-04-15T06:06:02;14.80;;;9.83;;
15331;SDS011;7766;51.534;6.722;2023-04-15T06:07:03;13.57;;;10.67;;
15331;SDS011;7766;51.534;6.722;2023-04-15T06:08:04;11.70;;;10.10;;
15331;SDS011;7766;51.534;6.722;2023-04-15T06:09:05;14.00;;;10.10;;
15331;SDS011;7766;51.534;6.722;2023-04-15T06:10:06;13.57;;;10.77;;
15331;SDS011;7766;51.534;6.722;2023-04-15T06:11:07;12.10;;;9.63;;
15331;SDS011;7766;51.534;6.722;2023-04-15T06:12:09;13.87;;;10.47;;
15331;SDS011;7766;51.534;6.722;2023-04-15T06:13:11;12.33;;;9.63;;